Weather reports worldwide

Advertisment
Fuengirola, Spain (8480): temperature & dewpoint: 24.09.2020 23:00:00 - 30.09.2020 23:00:00 (CEST)Fuengirola, Spain (8480): wind speed & gusts: 24.09.2020 23:00:00 - 30.09.2020 23:00:00 (CEST)Fuengirola, Spain (8480): wind direction: 24.09.2020 23:00:00 - 30.09.2020 23:00:00 (CEST)Fuengirola, Spain (8480): reduced air pressure: 24.09.2020 23:00:00 - 30.09.2020 23:00:00 (CEST)Fuengirola, Spain (8480): precipitation: 24.09.2020 23:00:00 - 30.09.2020 23:00:00 (CEST)
Date & Time tt [°C] td [°C] ff [km/h] ff [kn] fx [km/h] fx [kn] dd ppp [hPa] rr [mm]
30.09.2020 23:00:00 - - - - - - - - -
30.09.2020 22:00:00 - - - - - - - - -
30.09.2020 21:00:00 - - - - - - - - -
30.09.2020 20:00:00 21,6 20,6 3 2 17 9 WSW 1016,8 -
30.09.2020 19:00:00 21,9 20,5 4 2 17 9 WSW 1016,7 0,0
30.09.2020 18:00:00 - - - - - - - - -
30.09.2020 17:00:00 - - - - - - - - -
30.09.2020 16:00:00 - - - - - - - - -
30.09.2020 15:00:00 - - - - - - - - -
30.09.2020 14:00:00 28,5 27,3 3 2 7 4 SE 1019,0 -
30.09.2020 13:00:00 - - - - - - - - -
30.09.2020 12:00:00 - - - - - - - - -
30.09.2020 11:00:00 - - - - - - - - -
30.09.2020 10:00:00 - - - - - - - - -
30.09.2020 09:00:00 - - - - - - - - -
30.09.2020 08:00:00 19,6 15,3 4 2 13 7 WNW 1018,5 -
30.09.2020 07:00:00 - - - - - - - - -
30.09.2020 06:00:00 19,0 14,9 4 2 10 6 WNW 1018,3 0,0
30.09.2020 05:00:00 - - - - - - - - -
30.09.2020 04:00:00 19,5 15,3 2 1 8 5 NW 1019,1 0,0
30.09.2020 03:00:00 19,6 15,9 4 2 7 4 NW 1019,6 0,0
30.09.2020 02:00:00 19,9 17,1 2 1 7 4 N 1019,6 -
30.09.2020 01:00:00 20,5 18,5 1 1 11 6 NNE 1019,5 0,0
30.09.2020 00:00:00 20,7 18,5 2 1 10 6 NE 1019,8 0,0
29.09.2020 23:00:00 - - - - - - - - -
29.09.2020 22:00:00 - - - - - - - - -
29.09.2020 21:00:00 21,3 17,5 3 2 12 6 E 1019,0 0,0
29.09.2020 20:00:00 22,0 16,7 5 3 13 7 E 1018,5 -
29.09.2020 19:00:00 - - - - - - - - -
29.09.2020 18:00:00 24,2 16,2 7 4 13 7 ENE 1017,8 0,0
29.09.2020 17:00:00 - - - - - - - - -
29.09.2020 16:00:00 - - - - - - - - -
29.09.2020 15:00:00 24,4 17,1 9 5 14 8 E 1018,9 0,0
29.09.2020 14:00:00 23,9 16,6 4 2 8 5 ENE 1019,6 -
29.09.2020 13:00:00 23,6 17,1 5 3 13 7 SE 1019,9 0,0
29.09.2020 12:00:00 - - - - - - - - -
29.09.2020 11:00:00 22,3 15,4 6 3 11 6 E 1019,8 0,0
29.09.2020 10:00:00 20,8 13,9 3 2 8 5 NW 1019,3 0,0
29.09.2020 09:00:00 19,8 13,5 5 3 10 5 NW 1018,9 0,0
29.09.2020 08:00:00 19,6 13,6 5 3 10 5 NW 1018,5 -
29.09.2020 07:00:00 18,7 12,8 5 3 9 5 NW 1018,1 0,0
29.09.2020 06:00:00 19,0 13,7 4 2 7 4 NW 1017,7 0,0
29.09.2020 05:00:00 18,7 14,4 2 1 7 4 NW 1017,8 0,0
29.09.2020 04:00:00 18,6 14,5 3 2 6 4 NNW 1018,1 0,0
29.09.2020 03:00:00 18,7 15,0 5 3 8 5 NW 1018,5 0,0
29.09.2020 02:00:00 19,0 16,0 1 0 5 3 WNW 1018,6 -
29.09.2020 01:00:00 - - - - - - - - -
29.09.2020 00:00:00 19,7 18,9 2 1 7 4 NE 1018,6 0,0
28.09.2020 23:00:00 20,0 19,2 4 2 10 5 ENE 1018,5 0,0
28.09.2020 22:00:00 19,7 18,9 3 2 15 8 NNE 1017,8 0,0
28.09.2020 21:00:00 - - - - - - - - -
28.09.2020 20:00:00 21,4 17,8 12 6 18 10 ESE 1017,1 -
28.09.2020 19:00:00 - - - - - - - - -
28.09.2020 18:00:00 - - - - - - - - -
28.09.2020 17:00:00 22,9 20,1 6 3 13 7 E 1016,8 0,0
28.09.2020 16:00:00 - - - - - - - - -
28.09.2020 15:00:00 - - - - - - - - -
28.09.2020 14:00:00 22,3 17,5 5 3 11 6 ESE 1018,4 -
28.09.2020 13:00:00 - - - - - - - - -
28.09.2020 12:00:00 - - - - - - - - -
28.09.2020 11:00:00 21,4 16,1 11 6 16 9 E 1018,3 0,0
28.09.2020 10:00:00 19,9 13,9 0 0 10 5 WNW 1017,7 0,0
28.09.2020 09:00:00 18,9 13,1 5 3 8 5 NW 1017,4 0,0
28.09.2020 08:00:00 18,7 13,4 5 3 9 5 NW 1016,9 -
28.09.2020 07:00:00 - - - - - - - - -
28.09.2020 06:00:00 - - - - - - - - -
28.09.2020 05:00:00 - - - - - - - - -
28.09.2020 04:00:00 19,1 13,9 3 2 8 4 NW 1016,2 0,0
28.09.2020 03:00:00 - - - - - - - - -
28.09.2020 02:00:00 19,5 16,0 5 3 16 8 S 1016,6 -
28.09.2020 01:00:00 19,7 17,6 1 1 13 7 N 1016,5 0,0
28.09.2020 00:00:00 20,2 17,6 2 1 7 4 E 1016,7 0,0
27.09.2020 23:00:00 20,9 17,5 1 1 13 7 E 1016,2 0,0
27.09.2020 22:00:00 - - - - - - - - -
27.09.2020 21:00:00 22,4 16,2 2 1 10 5 SW 1014,9 0,0
27.09.2020 20:00:00 23,8 16,3 3 2 18 10 W 1014,4 -
27.09.2020 19:00:00 - - - - - - - - -
27.09.2020 18:00:00 - - - - - - - - -
27.09.2020 17:00:00 24,7 16,4 3 2 18 10 WSW 1013,7 0,0
27.09.2020 16:00:00 24,5 16,5 4 2 26 14 WSW 1014,0 0,0
27.09.2020 15:00:00 - - - - - - - - -
27.09.2020 14:00:00 26,4 16,0 10 5 26 14 ESE 1014,6 -
27.09.2020 13:00:00 25,4 15,4 12 7 34 18 NNW 1014,7 0,0
27.09.2020 12:00:00 24,0 15,0 12 7 35 19 NW 1015,4 0,0
27.09.2020 11:00:00 - - - - - - - - -
27.09.2020 10:00:00 - - - - - - - - -
27.09.2020 09:00:00 22,2 14,0 2 1 30 16 SSE 1014,7 0,0
27.09.2020 08:00:00 22,4 13,5 13 7 33 18 NNW 1014,6 -
27.09.2020 07:00:00 - - - - - - - - -
27.09.2020 06:00:00 22,7 11,4 12 6 31 17 W 1014,0 0,0
27.09.2020 05:00:00 - - - - - - - - -
27.09.2020 04:00:00 23,5 10,9 4 2 19 10 SW 1014,8 0,0
27.09.2020 03:00:00 - - - - - - - - -
27.09.2020 02:00:00 24,0 11,7 6 3 16 9 SSW 1015,9 -
27.09.2020 01:00:00 24,4 11,0 5 3 26 14 NW 1016,3 0,0
27.09.2020 00:00:00 24,7 11,7 8 4 20 11 NNW 1016,9 0,0
26.09.2020 23:00:00 - - - - - - - - -
26.09.2020 22:00:00 25,4 11,9 5 3 17 9 NNW 1017,4 0,0
26.09.2020 21:00:00 22,4 14,2 4 2 19 10 N 1017,6 0,0
26.09.2020 20:00:00 22,4 16,4 5 3 13 7 SSW 1017,5 -
26.09.2020 19:00:00 23,6 15,3 4 2 16 8 WSW 1017,7 0,0
26.09.2020 18:00:00 - - - - - - - - -
26.09.2020 17:00:00 22,7 15,8 5 3 21 11 SW 1018,7 0,0
26.09.2020 16:00:00 21,5 17,9 11 6 17 9 SSW 1019,6 0,0
26.09.2020 15:00:00 - - - - - - - - -
26.09.2020 14:00:00 21,9 18,9 4 2 9 5 SSW 1021,1 -
26.09.2020 13:00:00 22,2 17,8 5 3 8 4 S 1021,9 0,0
26.09.2020 12:00:00 21,5 16,6 5 3 9 5 SSW 1022,0 0,0
26.09.2020 11:00:00 - - - - - - - - -
26.09.2020 10:00:00 - - - - - - - - -
26.09.2020 09:00:00 21,0 9,9 9 5 16 9 WNW 1020,9 0,0
26.09.2020 08:00:00 20,9 9,4 8 5 18 10 WNW 1020,7 -
26.09.2020 07:00:00 20,5 8,8 7 4 18 10 NW 1020,6 0,0
26.09.2020 06:00:00 21,1 9,7 0 0 15 8 SSW 1020,9 0,0
26.09.2020 05:00:00 22,0 9,6 17 9 39 21 ENE 1021,0 0,0
26.09.2020 04:00:00 21,8 9,9 2 1 29 15 WSW 1020,9 0,0
26.09.2020 03:00:00 22,3 9,8 6 3 17 9 E 1021,3 0,0
26.09.2020 02:00:00 23,1 10,2 1 1 16 9 WSW 1021,6 -
26.09.2020 01:00:00 23,8 10,8 2 1 36 19 W 1021,7 0,0
26.09.2020 00:00:00 25,1 10,9 7 4 35 19 ENE 1021,7 0,0
25.09.2020 23:00:00 - - - - - - - - -
25.09.2020 22:00:00 - - - - - - - - -
25.09.2020 21:00:00 26,2 12,3 8 5 19 11 N 1021,2 0,0
25.09.2020 20:00:00 24,5 15,2 4 2 17 9 S 1020,7 -
25.09.2020 19:00:00 - - - - - - - - -
25.09.2020 18:00:00 - - - - - - - - -
25.09.2020 17:00:00 - - - - - - - - -
25.09.2020 16:00:00 - - - - - - - - -
25.09.2020 15:00:00 - - - - - - - - -
25.09.2020 14:00:00 29,0 13,7 11 6 30 16 NW 1021,3 -
25.09.2020 13:00:00 - - - - - - - - -
25.09.2020 12:00:00 - - - - - - - - -
25.09.2020 11:00:00 26,3 14,7 11 6 29 16 NW 1021,1 0,0
25.09.2020 10:00:00 24,9 16,3 9 5 26 14 NW 1021,0 0,0
25.09.2020 09:00:00 - - - - - - - - -
25.09.2020 08:00:00 25,1 18,1 5 3 22 12 N 1019,7 -
25.09.2020 07:00:00 25,0 17,2 6 3 24 13 ESE 1019,6 0,0
25.09.2020 06:00:00 - - - - - - - - -
25.09.2020 05:00:00 26,6 17,1 8 4 23 13 NW 1018,9 0,0
25.09.2020 04:00:00 - - - - - - - - -
25.09.2020 03:00:00 - - - - - - - - -
25.09.2020 02:00:00 27,2 16,8 1 1 14 7 ENE 1019,5 -
25.09.2020 01:00:00 27,3 17,1 4 2 14 7 N 1019,5 0,0
25.09.2020 00:00:00 27,9 17,5 1 1 10 5 W 1019,5 0,0
24.09.2020 23:00:00 - - - - - - - - -

tt = temperature
td = dewpoint
ff = wind speed
fx = gusts
dd = wind direction
ppp = reduced air pressure
rr = precipitation

Next stations